Time;durP1;ratioP1;P1;durP2;ratioP2;P2;SDS_P1;SDS_P2;PMS_P1;PMS_P2;Temp;Humidity;BMP_temperature;BMP_pressure;BME280_temperature;BME280_humidity;BME280_pressure;Samples;Min_cycle;Max_cycle;Signal;HPM_P1;HPM_P2
2024/01/21 00:00:13;;;;;;;22.75;11.30;;;-5.00;99.90;;;;;;5043649;28;20100;-80
2024/01/21 00:03:01;;;;;;;24.75;12.05;;;-5.00;1.00;;;;;;5047149;28;20037;-79
2024/01/21 00:05:49;;;;;;;23.13;11.85;;;-5.20;99.90;;;;;;5037261;28;20517;-78
2024/01/21 00:08:36;;;;;;;21.88;10.75;;;-5.30;99.90;;;;;;5039248;28;20661;-76
2024/01/21 00:11:25;;;;;;;27.13;12.43;;;-5.40;99.90;;;;;;5035292;28;20046;-78
2024/01/21 00:14:15;;;;;;;23.63;12.88;;;-5.30;99.90;;;;;;5032085;28;20513;-78
2024/01/21 00:17:04;;;;;;;43.72;15.05;;;-5.30;1.00;;;;;;5034155;28;20603;-78
2024/01/21 00:19:56;;;;;;;28.35;13.82;;;-5.40;1.00;;;;;;5035140;28;20133;-78
2024/01/21 00:22:43;;;;;;;30.85;15.07;;;-5.50;1.00;;;;;;5035706;28;20403;-78
2024/01/21 00:25:30;;;;;;;26.23;13.50;;;-5.50;1.00;;;;;;5034233;28;20049;-78
2024/01/21 00:28:19;;;;;;;24.95;13.18;;;-5.50;1.00;;;;;;5043098;28;20044;-79
2024/01/21 00:31:06;;;;;;;28.85;14.48;;;-5.50;1.00;;;;;;5025607;28;20522;-78
2024/01/21 00:33:54;;;;;;;29.38;14.40;;;-5.60;1.00;;;;;;5049769;28;20056;-77
2024/01/21 00:36:44;;;;;;;28.35;13.88;;;-5.60;1.00;;;;;;5044656;28;20041;-80
2024/01/21 00:39:33;;;;;;;34.72;14.35;;;-5.60;1.00;;;;;;5034744;28;20045;-78
2024/01/21 00:42:21;;;;;;;31.13;15.07;;;-5.60;1.00;;;;;;5033099;28;20138;-78
2024/01/21 00:45:10;;;;;;;33.65;16.85;;;-5.70;82.20;;;;;;5047673;28;20053;-76
2024/01/21 00:47:59;;;;;;;36.08;16.83;;;-5.60;99.90;;;;;;5049307;28;20113;-78
2024/01/21 00:50:47;;;;;;;34.05;16.70;;;-5.50;99.90;;;;;;5055075;28;20049;-79
2024/01/21 00:53:34;;;;;;;33.10;14.43;;;-5.50;99.90;;;;;;5034168;28;20493;-78
2024/01/21 00:56:22;;;;;;;31.35;15.88;;;-5.50;99.90;;;;;;5036302;28;20046;-78
2024/01/21 00:59:09;;;;;;;37.17;16.05;;;-5.50;99.90;;;;;;5039357;28;20045;-77
2024/01/21 01:02:00;;;;;;;35.42;15.65;;;-5.50;1.00;;;;;;5053987;28;20049;-78
2024/01/21 01:04:50;;;;;;;28.63;15.10;;;-5.40;99.90;;;;;;5055120;28;20022;-78
2024/01/21 01:07:37;;;;;;;35.53;15.77;;;-5.50;99.90;;;;;;5038329;28;20060;-79
2024/01/21 01:10:25;;;;;;;30.40;15.32;;;-5.60;99.90;;;;;;5031732;28;20174;-78
2024/01/21 01:13:13;;;;;;;34.17;15.90;;;-5.30;99.90;;;;;;5033010;28;20053;-75
2024/01/21 01:16:02;;;;;;;31.50;16.40;;;-5.10;99.90;;;;;;5036685;28;20048;-77
2024/01/21 01:18:50;;;;;;;40.05;17.48;;;-4.70;1.00;;;;;;5044145;28;20037;-77
2024/01/21 01:21:39;;;;;;;29.42;15.77;;;-4.50;69.40;;;;;;5031271;28;20067;-77
2024/01/21 01:24:26;;;;;;;40.25;18.05;;;-4.50;99.90;;;;;;5042391;28;20044;-77
2024/01/21 01:27:14;;;;;;;36.00;18.17;;;-4.40;99.90;;;;;;5046394;28;20053;-79
2024/01/21 01:30:03;;;;;;;42.50;17.10;;;-4.40;99.90;;;;;;5018568;28;20057;-76
2024/01/21 01:32:51;;;;;;;39.53;18.70;;;-4.30;99.90;;;;;;5040843;28;20068;-78
2024/01/21 01:35:38;;;;;;;38.90;17.60;;;-4.40;1.00;;;;;;5033782;28;20041;-77
2024/01/21 01:38:26;;;;;;;37.03;17.50;;;-4.40;39.20;;;;;;4992463;28;1149547;-77
2024/01/21 01:41:14;;;;;;;39.25;17.85;;;-4.40;1.00;;;;;;5036507;28;20525;-77
2024/01/21 01:44:05;;;;;;;32.83;16.95;;;-4.40;1.00;;;;;;5033200;28;20041;-78
2024/01/21 01:46:52;;;;;;;37.88;18.33;;;-4.50;1.00;;;;;;5053382;28;20045;-78
2024/01/21 01:49:42;;;;;;;32.60;16.55;;;-4.70;1.00;;;;;;5041338;28;20037;-79
2024/01/21 01:52:30;;;;;;;33.80;16.58;;;-4.80;65.40;;;;;;5052278;28;20037;-78
2024/01/21 01:55:20;;;;;;;35.58;17.50;;;-4.90;1.00;;;;;;5047232;28;20108;-79
2024/01/21 01:58:07;;;;;;;36.03;16.88;;;-4.90;58.60;;;;;;5030463;28;20044;-78
2024/01/21 02:00:56;;;;;;;29.27;15.23;;;-4.90;1.00;;;;;;5037785;28;20034;-77
2024/01/21 02:03:45;;;;;;;30.05;14.82;;;-4.90;1.00;;;;;;5034257;28;20176;-78
2024/01/21 02:06:33;;;;;;;29.85;14.32;;;-5.00;99.90;;;;;;5035500;28;20124;-77
2024/01/21 02:09:25;;;;;;;33.65;15.07;;;-5.10;99.90;;;;;;5042668;28;20056;-79
2024/01/21 02:12:13;;;;;;;32.55;14.65;;;-5.20;99.90;;;;;;5046653;28;20077;-78
2024/01/21 02:15:02;;;;;;;29.02;13.55;;;-5.20;99.90;;;;;;5025512;28;20045;-77
2024/01/21 02:17:50;;;;;;;26.63;13.48;;;-5.30;99.90;;;;;;5035026;28;20079;-78
2024/01/21 02:20:37;;;;;;;28.60;13.85;;;-5.30;95.00;;;;;;5029617;28;20037;-77
2024/01/21 02:23:26;;;;;;;31.60;14.45;;;-5.40;1.00;;;;;;5028833;28;20621;-79
2024/01/21 02:26:13;;;;;;;25.65;12.00;;;-5.30;99.90;;;;;;5031957;28;20071;-80
2024/01/21 02:29:03;;;;;;;26.42;12.77;;;-5.30;24.10;;;;;;5022548;28;20060;-79
2024/01/21 02:31:52;;;;;;;24.63;11.73;;;-5.20;1.00;;;;;;5019600;28;20056;-77
2024/01/21 02:34:40;;;;;;;23.17;11.95;;;-5.00;1.00;;;;;;5031506;28;20466;-79
2024/01/21 02:37:28;;;;;;;27.25;11.68;;;-4.80;99.90;;;;;;5020756;28;20123;-76
2024/01/21 02:40:16;;;;;;;19.20;10.07;;;-4.90;1.00;;;;;;5026660;28;20083;-80
2024/01/21 02:43:07;;;;;;;16.92;8.95;;;-4.60;99.90;;;;;;5044140;28;20471;-76
2024/01/21 02:45:55;;;;;;;15.50;8.85;;;-4.40;99.90;;;;;;5036416;28;20070;-78
2024/01/21 02:48:43;;;;;;;19.52;9.77;;;-4.40;99.90;;;;;;5044838;28;20063;-78
2024/01/21 02:51:30;;;;;;;15.73;8.38;;;-4.20;1.00;;;;;;5054409;28;20040;-76
2024/01/21 02:54:18;;;;;;;17.75;8.93;;;-4.20;99.90;;;;;;5065375;28;20101;-76
2024/01/21 02:57:07;;;;;;;18.85;10.45;;;-4.30;99.90;;;;;;5055184;28;20429;-77
2024/01/21 02:59:55;;;;;;;17.42;9.85;;;-4.30;99.90;;;;;;5037014;28;20041;-77
2024/01/21 03:02:43;;;;;;;22.00;10.88;;;-4.30;99.90;;;;;;5033475;28;20059;-79
2024/01/21 03:05:30;;;;;;;18.40;9.65;;;-4.40;99.90;;;;;;5024685;28;20056;-78
2024/01/21 03:08:18;;;;;;;23.58;10.35;;;-4.50;99.90;;;;;;5032499;28;20504;-78
2024/01/21 03:11:05;;;;;;;22.35;10.68;;;-4.70;99.90;;;;;;5036377;28;20124;-77
2024/01/21 03:13:53;;;;;;;21.83;10.63;;;-4.80;1.00;;;;;;5035119;28;20562;-78
2024/01/21 03:16:40;;;;;;;20.02;10.38;;;-4.80;1.00;;;;;;5033714;28;20119;-79
2024/01/21 03:19:28;;;;;;;18.80;10.43;;;-4.90;1.00;;;;;;5031708;28;20523;-76
2024/01/21 03:22:15;;;;;;;21.55;10.38;;;-4.90;1.00;;;;;;5024703;28;20041;-78
2024/01/21 03:25:06;;;;;;;19.95;10.43;;;-4.90;99.90;;;;;;5038645;28;20513;-76
2024/01/21 03:27:54;;;;;;;16.65;9.88;;;-5.00;98.40;;;;;;5055100;28;20319;-80
2024/01/21 03:30:42;;;;;;;20.90;11.05;;;-5.00;95.90;;;;;;5040017;28;20514;-77
2024/01/21 03:33:30;;;;;;;18.58;9.45;;;-5.10;99.90;;;;;;5042578;28;20052;-79
2024/01/21 03:36:19;;;;;;;20.98;9.75;;;-5.10;99.90;;;;;;5042242;28;20049;-79
2024/01/21 03:39:08;;;;;;;18.88;10.32;;;-5.20;99.90;;;;;;5035843;28;20047;-76
2024/01/21 03:41:56;;;;;;;20.50;9.63;;;-5.20;99.90;;;;;;5037958;28;20053;-77
2024/01/21 03:44:47;;;;;;;19.40;9.05;;;-5.10;1.00;;;;;;5033780;28;20048;-78
2024/01/21 03:47:34;;;;;;;19.75;9.85;;;-5.10;1.00;;;;;;5022809;28;20050;-79
2024/01/21 03:50:22;;;;;;;16.17;9.43;;;-5.00;1.00;;;;;;5035318;28;20056;-79
2024/01/21 03:53:11;;;;;;;19.73;9.38;;;-5.00;99.90;;;;;;5038171;28;20482;-78
2024/01/21 03:55:59;;;;;;;16.23;8.98;;;-4.90;1.00;;;;;;5037207;28;20033;-77
2024/01/21 03:58:47;;;;;;;19.35;9.43;;;-4.90;99.90;;;;;;5036130;28;20048;-78
2024/01/21 04:01:44;;;;;;;16.00;8.90;;;-4.80;99.90;;;;;;5032990;28;20046;-78
2024/01/21 04:04:31;;;;;;;16.13;8.63;;;-4.70;99.90;;;;;;5037243;28;20029;-77
2024/01/21 04:07:20;;;;;;;18.95;7.95;;;-4.70;52.50;;;;;;5020201;28;20048;-79
2024/01/21 04:10:11;;;;;;;16.75;8.55;;;-4.60;1.00;;;;;;5028384;28;20128;-79
2024/01/21 04:13:00;;;;;;;17.42;8.52;;;-4.60;1.00;;;;;;5040576;28;20087;-78
2024/01/21 04:15:48;;;;;;;12.88;8.35;;;-4.60;1.00;;;;;;5026841;28;20056;-77
2024/01/21 04:18:40;;;;;;;13.55;7.20;;;-4.50;1.00;;;;;;5041980;28;20055;-78
2024/01/21 04:21:28;;;;;;;16.33;8.88;;;-4.50;99.90;;;;;;5032717;28;20029;-77
2024/01/21 04:24:15;;;;;;;14.48;8.25;;;-4.50;99.90;;;;;;5056592;28;20122;-76
2024/01/21 04:27:04;;;;;;;16.50;8.77;;;-4.60;99.90;;;;;;5048245;28;20192;-76
2024/01/21 04:29:53;;;;;;;14.80;7.88;;;-4.60;99.90;;;;;;5042068;28;20073;-79
2024/01/21 04:32:41;;;;;;;16.15;7.97;;;-4.50;99.90;;;;;;5034879;28;20048;-78
2024/01/21 04:35:30;;;;;;;16.15;8.65;;;-4.50;99.90;;;;;;5038076;28;20045;-79
2024/01/21 04:38:23;;;;;;;14.75;7.93;;;-4.40;99.90;;;;;;5029660;28;20038;-78
2024/01/21 04:41:15;;;;;;;12.38;7.40;;;-4.40;99.90;;;;;;5033148;28;20052;-77
2024/01/21 04:44:03;;;;;;;11.95;7.43;;;-4.40;99.90;;;;;;5038005;28;20541;-78
2024/01/21 04:46:52;;;;;;;12.90;7.95;;;-4.30;99.90;;;;;;5037203;28;20063;-79
2024/01/21 04:49:39;;;;;;;14.38;8.13;;;-4.50;99.90;;;;;;5039034;28;20049;-79
2024/01/21 04:52:27;;;;;;;13.70;8.23;;;-4.30;99.90;;;;;;5036247;28;20417;-77
2024/01/21 04:55:15;;;;;;;14.43;7.35;;;-4.20;39.60;;;;;;5033285;28;20418;-79
2024/01/21 04:58:03;;;;;;;13.07;7.53;;;-4.10;1.00;;;;;;5038587;28;20053;-79
2024/01/21 05:00:51;;;;;;;16.55;8.63;;;-4.10;1.00;;;;;;5048726;28;20045;-76
2024/01/21 05:03:40;;;;;;;14.63;8.10;;;-4.10;1.00;;;;;;5050158;28;20036;-78
2024/01/21 05:06:30;;;;;;;14.65;7.85;;;-4.20;1.00;;;;;;5044462;28;20153;-78
2024/01/21 05:09:18;;;;;;;13.25;7.40;;;-4.40;1.00;;;;;;5028072;28;20635;-80
2024/01/21 05:12:05;;;;;;;15.82;8.50;;;-4.40;1.00;;;;;;5053080;28;20493;-75
2024/01/21 05:14:55;;;;;;;13.57;8.27;;;-4.30;1.00;;;;;;5055484;28;20037;-77
2024/01/21 05:17:44;;;;;;;14.25;8.35;;;-4.20;1.00;;;;;;5017559;28;20041;-79
2024/01/21 05:20:36;;;;;;;13.48;7.88;;;-4.20;1.00;;;;;;5051356;28;20036;-79
2024/01/21 05:23:24;;;;;;;12.18;6.00;;;-4.20;1.00;;;;;;5051147;28;20041;-78
2024/01/21 05:26:23;;;;;;;15.38;8.02;;;-4.20;20.20;;;;;;5038322;28;20045;-77
2024/01/21 05:29:11;;;;;;;14.35;8.80;;;-4.20;99.90;;;;;;5031694;28;20049;-78
2024/01/21 05:32:00;;;;;;;14.32;8.27;;;-4.20;99.90;;;;;;5034664;28;20063;-77
2024/01/21 05:34:48;;;;;;;18.25;8.23;;;-4.10;56.70;;;;;;5035344;28;20041;-79
2024/01/21 05:37:36;;;;;;;14.60;8.40;;;-4.10;75.20;;;;;;5034881;28;20215;-76
2024/01/21 05:40:25;;;;;;;16.67;8.98;;;-4.10;99.90;;;;;;5038204;28;20561;-76
2024/01/21 05:43:12;;;;;;;13.77;7.93;;;-4.10;88.80;;;;;;5019229;28;20644;-76
2024/01/21 05:46:01;;;;;;;15.48;8.43;;;-4.10;93.00;;;;;;5038294;28;20088;-76
2024/01/21 05:48:49;;;;;;;14.65;8.77;;;-4.10;99.90;;;;;;5047529;28;20053;-78
2024/01/21 05:51:36;;;;;;;18.50;8.85;;;-4.20;99.90;;;;;;5026897;28;20087;-79
2024/01/21 05:54:27;;;;;;;15.57;9.00;;;-4.40;99.90;;;;;;5030736;28;20040;-78
2024/01/21 05:57:15;;;;;;;15.25;8.90;;;-4.50;99.90;;;;;;5031485;28;20042;-79
2024/01/21 06:00:12;;;;;;;17.20;9.55;;;-4.60;99.90;;;;;;5046512;28;20541;-78
2024/01/21 06:03:01;;;;;;;15.88;9.02;;;-4.50;99.90;;;;;;5045301;28;20049;-78
2024/01/21 06:05:49;;;;;;;15.80;9.48;;;-4.20;99.90;;;;;;5057398;28;20132;-78
2024/01/21 06:08:37;;;;;;;18.48;10.55;;;-4.00;42.70;;;;;;5053072;28;20080;-77
2024/01/21 06:11:27;;;;;;;20.23;10.77;;;-3.90;1.00;;;;;;5039928;28;20631;-78
2024/01/21 06:14:16;;;;;;;18.88;10.05;;;-3.80;1.00;;;;;;5038667;28;20498;-79
2024/01/21 06:17:04;;;;;;;27.38;14.80;;;-3.80;99.90;;;;;;5034778;28;20079;-78
2024/01/21 06:19:51;;;;;;;17.42;9.45;;;-3.90;99.90;;;;;;5039443;28;20500;-76
2024/01/21 06:22:41;;;;;;;18.00;10.55;;;-3.90;99.90;;;;;;5034409;28;20498;-79
2024/01/21 06:25:33;;;;;;;17.42;9.50;;;-4.10;99.90;;;;;;5034311;28;20056;-77
2024/01/21 06:28:20;;;;;;;19.45;10.52;;;-4.30;99.90;;;;;;5035139;28;20044;-78
2024/01/21 06:31:21;;;;;;;17.40;10.35;;;-4.40;1.00;;;;;;5040330;28;20692;-77
2024/01/21 06:34:09;;;;;;;22.88;11.30;;;-4.30;35.60;;;;;;5037295;28;20080;-77
2024/01/21 06:36:56;;;;;;;19.00;10.60;;;-4.30;1.00;;;;;;5037852;28;20056;-79
2024/01/21 06:39:45;;;;;;;19.50;10.75;;;-4.20;1.00;;;;;;5039497;28;20033;-78
2024/01/21 06:42:46;;;;;;;;;;;-4.10;1.00;;;;;;5035876;28;20045;-77
2024/01/21 06:45:33;;;;;;;21.25;11.10;;;-4.10;1.00;;;;;;5044084;28;19921;-77
2024/01/21 06:48:23;;;;;;;18.52;11.30;;;-4.00;1.00;;;;;;5049069;28;20053;-78
2024/01/21 06:51:30;;;;;;;16.80;10.85;;;-3.80;99.90;;;;;;5042409;28;20052;-79
2024/01/21 06:54:17;;;;;;;18.80;10.82;;;-3.70;99.90;;;;;;5043588;28;20041;-77
2024/01/21 06:57:08;;;;;;;19.48;11.05;;;-3.90;99.90;;;;;;5038663;28;20509;-79
2024/01/21 06:59:55;;;;;;;23.00;11.45;;;-3.90;99.90;;;;;;5038985;28;20041;-77
2024/01/21 07:02:43;;;;;;;20.40;10.85;;;-4.00;99.90;;;;;;5022304;28;20043;-79
2024/01/21 07:05:31;;;;;;;21.17;11.15;;;-4.00;99.90;;;;;;5039133;28;20052;-78
2024/01/21 07:08:24;;;;;;;21.33;10.85;;;-3.90;99.90;;;;;;5033264;28;20147;-75
2024/01/21 07:11:12;;;;;;;21.25;10.43;;;-3.90;99.90;;;;;;5033943;28;20405;-77
2024/01/21 07:14:00;;;;;;;21.02;11.18;;;-3.90;99.90;;;;;;5041786;28;20122;-78
2024/01/21 07:16:48;;;;;;;18.25;10.98;;;-3.80;99.90;;;;;;5034476;28;20044;-80
2024/01/21 07:19:36;;;;;;;22.73;11.65;;;-3.80;99.90;;;;;;5038753;28;20068;-77
2024/01/21 07:22:23;;;;;;;20.23;11.13;;;-3.60;99.90;;;;;;5025044;28;20036;-78
2024/01/21 07:25:14;;;;;;;27.55;10.90;;;-3.30;99.90;;;;;;5042022;28;20131;-76
2024/01/21 07:28:03;;;;;;;19.35;11.65;;;-3.10;89.80;;;;;;5040245;28;20421;-77
2024/01/21 07:30:51;;;;;;;17.90;9.85;;;-3.10;1.00;;;;;;5035497;28;20239;-77
2024/01/21 07:33:40;;;;;;;17.02;10.43;;;-3.00;1.00;;;;;;5040356;28;20041;-77
2024/01/21 07:36:29;;;;;;;21.02;11.50;;;-2.90;1.00;;;;;;5059915;28;20095;-75
2024/01/21 07:39:18;;;;;;;18.08;10.48;;;-2.80;1.00;;;;;;5062846;28;20080;-77
2024/01/21 07:42:06;;;;;;;17.50;9.55;;;-2.60;99.90;;;;;;5058948;28;20045;-77
2024/01/21 07:44:57;;;;;;;26.95;13.07;;;-2.60;99.90;;;;;;5054141;28;20057;-75
2024/01/21 07:47:45;;;;;;;26.25;12.38;;;-2.50;99.90;;;;;;5057794;28;20077;-78
2024/01/21 07:50:34;;;;;;;19.58;11.52;;;-2.50;99.90;;;;;;5041438;28;20040;-78
2024/01/21 07:53:25;;;;;;;20.15;11.25;;;-2.50;99.90;;;;;;5030210;28;20797;-77
2024/01/21 07:56:13;;;;;;;20.38;10.80;;;-2.60;99.90;;;;;;5028464;28;20100;-79
2024/01/21 07:59:03;;;;;;;20.08;11.20;;;-2.50;99.90;;;;;;5037434;28;20060;-78
2024/01/21 08:01:51;;;;;;;19.10;11.32;;;-2.50;99.90;;;;;;5036559;28;20499;-77
2024/01/21 08:04:38;;;;;;;18.42;11.27;;;-2.40;99.90;;;;;;5039617;28;20057;-79
2024/01/21 08:07:28;;;;;;;17.77;11.48;;;-2.20;99.90;;;;;;5042011;28;20816;-77
2024/01/21 08:10:16;;;;;;;16.90;9.63;;;-1.90;76.90;;;;;;5037227;28;20610;-76
2024/01/21 08:13:03;;;;;;;19.33;10.88;;;-1.70;1.00;;;;;;5040143;28;20053;-78
2024/01/21 08:15:51;;;;;;;17.85;10.65;;;-1.60;1.00;;;;;;5044129;28;20249;-76
2024/01/21 08:18:39;;;;;;;17.13;10.60;;;-1.60;1.00;;;;;;5062973;28;20171;-77
2024/01/21 08:21:28;;;;;;;19.73;10.98;;;-1.50;1.00;;;;;;5069535;28;20048;-75
2024/01/21 08:24:16;;;;;;;19.73;10.00;;;-1.50;1.00;;;;;;5039909;28;20068;-76
2024/01/21 08:27:05;;;;;;;19.30;10.30;;;-1.40;99.90;;;;;;5036172;28;20095;-76
2024/01/21 08:29:58;;;;;;;17.67;10.32;;;-1.20;99.90;;;;;;5040316;28;20135;-75
2024/01/21 08:32:46;;;;;;;16.08;10.93;;;-1.20;99.90;;;;;;5047773;28;20036;-78
2024/01/21 08:35:36;;;;;;;16.33;10.68;;;-1.20;99.90;;;;;;5038997;28;20402;-78
2024/01/21 08:38:24;;;;;;;19.60;10.45;;;-1.10;99.90;;;;;;5040527;28;20044;-78
2024/01/21 08:41:14;;;;;;;19.25;10.70;;;-1.00;99.90;;;;;;5039895;28;20167;-76
2024/01/21 08:44:02;;;;;;;17.00;10.63;;;-0.90;99.90;;;;;;5048244;28;20048;-79
2024/01/21 08:46:54;;;;;;;16.20;10.95;;;-0.80;99.90;;;;;;5056399;28;20048;-76
2024/01/21 08:49:41;;;;;;;18.50;11.98;;;-0.70;99.90;;;;;;5046014;28;20047;-78
2024/01/21 08:52:31;;;;;;;21.10;11.07;;;-0.60;99.90;;;;;;5044885;28;20597;-77
2024/01/21 08:55:19;;;;;;;20.75;11.70;;;-0.60;99.90;;;;;;5049754;28;20037;-76
2024/01/21 08:58:09;;;;;;;29.70;13.73;;;-0.60;99.90;;;;;;5037698;28;20048;-77
2024/01/21 09:00:59;;;;;;;23.08;12.45;;;-0.50;99.90;;;;;;5035340;28;20124;-78
2024/01/21 09:03:52;;;;;;;;;;;-0.50;99.90;;;;;;5035443;28;21183;-77
2024/01/21 09:06:41;;;;;;;21.65;12.20;;;-0.50;99.90;;;;;;5046178;28;20377;-79
2024/01/21 09:09:33;;;;;;;18.50;11.02;;;-0.50;99.90;;;;;;5041494;28;20041;-77
2024/01/21 09:12:24;;;;;;;19.98;11.57;;;-0.50;95.30;;;;;;5038439;28;20053;-76
2024/01/21 09:15:15;;;;;;;22.38;11.50;;;-0.50;77.50;;;;;;5020013;28;20056;-77
2024/01/21 09:18:02;;;;;;;19.17;10.63;;;-0.40;65.50;;;;;;5039232;28;20060;-75
2024/01/21 09:20:50;;;;;;;22.75;11.50;;;-0.40;45.00;;;;;;5037715;28;20067;-75
2024/01/21 09:23:42;;;;;;;19.98;11.95;;;-0.40;30.00;;;;;;5019618;28;20494;-80
2024/01/21 09:26:30;;;;;;;;;;;-0.40;21.40;;;;;;5027267;28;20102;-77
2024/01/21 09:29:18;;;;;;;19.25;11.50;;;-0.40;29.40;;;;;;5033113;28;19921;-78
2024/01/21 09:32:07;;;;;;;21.98;13.18;;;-0.40;21.90;;;;;;5037480;28;20048;-79
2024/01/21 09:34:58;;;;;;;24.15;12.68;;;-0.30;15.70;;;;;;5025513;28;20104;-79
2024/01/21 09:37:49;;;;;;;23.20;12.15;;;-0.20;12.60;;;;;;5041307;28;20041;-79
2024/01/21 09:40:37;;;;;;;19.60;12.30;;;-0.10;17.40;;;;;;5044844;28;20074;-80
2024/01/21 09:43:30;;;;;;;18.65;11.30;;;0.00;5.00;;;;;;5044416;28;20164;-78
2024/01/21 09:46:19;;;;;;;18.60;10.93;;;0.10;1.00;;;;;;5042067;28;20045;-78
2024/01/21 09:49:11;;;;;;;21.02;12.80;;;0.30;1.00;;;;;;5040819;28;20057;-77
2024/01/21 09:52:05;;;;;;;23.25;12.70;;;0.50;1.00;;;;;;5043607;28;20064;-79
2024/01/21 09:54:54;;;;;;;26.67;14.38;;;0.80;1.00;;;;;;5045513;28;20120;-79
2024/01/21 09:57:57;;;;;;;17.30;10.70;;;1.10;1.00;;;;;;5047635;28;20167;-79
2024/01/21 10:00:47;;;;;;;18.40;11.45;;;1.20;1.00;;;;;;5041017;28;20048;-78
2024/01/21 10:03:35;;;;;;;24.25;12.73;;;1.50;1.00;;;;;;5036032;28;20036;-79
2024/01/21 10:06:28;;;;;;;20.60;12.07;;;1.50;1.00;;;;;;5052204;28;20477;-77
2024/01/21 10:09:21;;;;;;;19.38;11.60;;;1.50;1.00;;;;;;5045746;28;20120;-77
2024/01/21 10:12:13;;;;;;;16.45;10.98;;;1.80;1.00;;;;;;5031691;28;20045;-79
2024/01/21 10:15:02;;;;;;;21.60;12.35;;;2.20;99.90;;;;;;5015054;28;20045;-79
2024/01/21 10:17:52;;;;;;;20.05;11.73;;;2.50;99.90;;;;;;5051333;28;20451;-78
2024/01/21 10:20:45;;;;;;;21.83;12.02;;;2.80;99.90;;;;;;5040288;28;20490;-79
2024/01/21 10:23:40;;;;;;;22.85;13.15;;;2.80;99.90;;;;;;5042278;28;20040;-81
2024/01/21 10:26:28;;;;;;;21.42;12.43;;;2.60;99.90;;;;;;5042356;28;20141;-79
2024/01/21 10:29:16;;;;;;;19.50;13.02;;;2.30;99.90;;;;;;5043086;28;20123;-79
2024/01/21 10:32:06;;;;;;;27.58;12.73;;;2.10;99.90;;;;;;5042781;28;20049;-79
2024/01/21 10:34:54;;;;;;;19.05;11.57;;;2.30;99.90;;;;;;5025525;28;20100;-77
2024/01/21 10:37:42;;;;;;;21.42;12.55;;;2.60;99.90;;;;;;5046626;28;20126;-78
2024/01/21 10:40:32;;;;;;;20.35;11.63;;;3.20;99.90;;;;;;5028075;28;20636;-77
2024/01/21 10:43:21;;;;;;;21.15;12.88;;;3.40;99.90;;;;;;5025149;28;20124;-79
2024/01/21 10:46:11;;;;;;;23.75;13.68;;;2.90;99.90;;;;;;5046625;28;20171;-77
2024/01/21 10:49:00;;;;;;;21.88;13.32;;;2.50;99.90;;;;;;5044775;28;20394;-76
2024/01/21 10:51:52;;;;;;;21.17;11.45;;;2.70;99.90;;;;;;5036380;28;20052;-79
2024/01/21 10:54:42;;;;;;;17.90;9.25;;;2.90;99.90;;;;;;5045859;28;20068;-79
2024/01/21 10:57:30;;;;;;;13.93;8.45;;;3.10;99.90;;;;;;5041084;28;20142;-80
2024/01/21 11:00:27;;;;;;;15.63;8.95;;;3.20;99.90;;;;;;5052246;28;20036;-78
2024/01/21 11:03:27;;;;;;;23.30;11.95;;;3.20;99.90;;;;;;5055374;28;20094;-77
2024/01/21 11:06:17;;;;;;;16.77;8.13;;;3.40;99.90;;;;;;5059865;28;20036;-76
2024/01/21 11:09:09;;;;;;;15.00;8.50;;;3.60;99.90;;;;;;5052659;28;20072;-81
2024/01/21 11:11:57;;;;;;;15.80;9.15;;;3.80;99.90;;;;;;5049602;28;20071;-78
2024/01/21 11:14:46;;;;;;;14.13;8.25;;;3.70;99.90;;;;;;5048443;28;20041;-78
2024/01/21 11:17:34;;;;;;;23.63;12.73;;;3.70;99.90;;;;;;5038924;28;20574;-79
2024/01/21 11:20:26;;;;;;;27.35;13.88;;;3.50;99.90;;;;;;5042916;28;20073;-80
2024/01/21 11:23:14;;;;;;;19.15;10.02;;;3.40;99.90;;;;;;5037983;28;20040;-79
2024/01/21 11:26:04;;;;;;;19.45;8.23;;;3.50;99.90;;;;;;5053044;28;20045;-78
2024/01/21 11:28:56;;;;;;;16.48;9.02;;;3.40;99.90;;;;;;5045579;28;20136;-77
2024/01/21 11:31:47;;;;;;;;;;;3.30;99.90;;;;;;5037599;28;20037;-77
2024/01/21 11:34:41;;;;;;;18.27;8.60;;;3.20;99.90;;;;;;5031463;28;20350;-78
2024/01/21 11:37:29;;;;;;;17.55;9.35;;;3.10;99.90;;;;;;5035442;28;20048;-79
2024/01/21 11:40:18;;;;;;;15.43;9.00;;;3.10;99.90;;;;;;5039872;28;20051;-79
2024/01/21 11:43:07;;;;;;;16.88;10.23;;;3.20;99.90;;;;;;5028980;28;20154;-79
2024/01/21 11:45:57;;;;;;;18.20;9.40;;;3.30;99.90;;;;;;5027009;28;20037;-79
2024/01/21 11:48:46;;;;;;;18.90;10.30;;;3.50;99.90;;;;;;5038842;28;20120;-80
2024/01/21 11:51:35;;;;;;;21.15;11.45;;;3.40;99.90;;;;;;5047239;28;20098;-79
2024/01/21 11:54:24;;;;;;;24.30;13.48;;;3.40;99.90;;;;;;5040717;28;20049;-79
2024/01/21 11:57:12;;;;;;;24.02;11.10;;;3.50;99.90;;;;;;5037663;28;20045;-78
2024/01/21 12:00:00;;;;;;;18.65;10.93;;;3.30;99.90;;;;;;5037713;28;20052;-79
2024/01/21 12:02:48;;;;;;;21.30;10.45;;;3.70;99.90;;;;;;5037482;28;20049;-78
2024/01/21 12:05:39;;;;;;;18.58;9.93;;;4.20;99.90;;;;;;5008539;28;20064;-78
2024/01/21 12:08:27;;;;;;;18.10;9.77;;;4.50;99.90;;;;;;5029209;28;20087;-79
2024/01/21 12:11:16;;;;;;;14.40;9.20;;;5.20;99.90;;;;;;5035784;28;20048;-79
2024/01/21 12:14:09;;;;;;;17.15;10.23;;;6.50;99.90;;;;;;5038694;28;20386;-77
2024/01/21 12:16:57;;;;;;;15.25;9.13;;;7.20;99.90;;;;;;5043237;28;20052;-79
2024/01/21 12:19:46;;;;;;;12.35;7.22;;;7.40;99.90;;;;;;5044225;28;20049;-78
2024/01/21 12:22:49;;;;;;;12.20;7.95;;;7.80;99.90;;;;;;5051809;28;20048;-78
2024/01/21 12:25:40;;;;;;;14.57;7.80;;;8.60;99.90;;;;;;5056024;28;20127;-81
2024/01/21 12:28:28;;;;;;;10.30;6.50;;;9.50;90.50;;;;;;5044591;28;20048;-78
2024/01/21 12:31:15;;;;;;;12.10;6.97;;;9.60;75.60;;;;;;5048369;28;20055;-80
2024/01/21 12:34:13;;;;;;;13.00;6.60;;;9.90;64.90;;;;;;5038994;28;20208;-81
2024/01/21 12:37:01;;;;;;;9.65;5.88;;;9.70;55.20;;;;;;5048696;28;20049;-79
2024/01/21 12:39:50;;;;;;;8.43;5.80;;;9.70;45.10;;;;;;5044994;28;20040;-80
2024/01/21 12:42:38;;;;;;;9.07;5.82;;;9.40;37.90;;;;;;5040533;28;20606;-80
2024/01/21 12:45:25;;;;;;;8.73;5.53;;;9.30;35.70;;;;;;5036136;28;20073;-79
2024/01/21 12:48:15;;;;;;;9.23;5.35;;;9.40;34.20;;;;;;5037785;28;20056;-78
2024/01/21 12:51:03;;;;;;;9.50;6.10;;;9.60;31.60;;;;;;5050540;28;20537;-77
2024/01/21 12:53:53;;;;;;;8.00;5.57;;;9.60;38.50;;;;;;5043976;28;20110;-78
2024/01/21 12:56:40;;;;;;;9.90;5.80;;;9.80;30.30;;;;;;5040454;28;20506;-80
2024/01/21 12:59:28;;;;;;;12.10;5.90;;;9.60;30.50;;;;;;5044808;28;20037;-78
2024/01/21 13:02:18;;;;;;;10.98;5.93;;;10.20;35.40;;;;;;5043665;28;20061;-78
2024/01/21 13:05:07;;;;;;;10.70;5.90;;;11.30;30.10;;;;;;5039221;28;20049;-77
2024/01/21 13:07:58;;;;;;;13.38;6.38;;;11.20;22.00;;;;;;5026044;28;20143;-78
2024/01/21 13:10:49;;;;;;;11.23;5.55;;;10.90;27.70;;;;;;5034628;28;20042;-77
2024/01/21 13:13:40;;;;;;;9.45;5.80;;;11.20;20.00;;;;;;5036563;28;20065;-78
2024/01/21 13:16:30;;;;;;;9.32;5.75;;;11.40;14.50;;;;;;5041835;28;20048;-79
2024/01/21 13:19:19;;;;;;;9.85;5.95;;;10.80;13.40;;;;;;5036394;28;20045;-79
2024/01/21 13:22:09;;;;;;;7.93;5.25;;;10.50;12.00;;;;;;5047429;28;20052;-78
2024/01/21 13:24:59;;;;;;;10.20;5.78;;;10.40;10.60;;;;;;5050530;28;20045;-78
2024/01/21 13:28:06;;;;;;;7.68;5.03;;;9.60;14.80;;;;;;5041119;28;20083;-79
2024/01/21 13:30:55;;;;;;;8.07;5.50;;;9.10;13.00;;;;;;5034600;28;20052;-78
2024/01/21 13:33:43;;;;;;;6.10;4.80;;;8.40;4.50;;;;;;5027558;28;20627;-79
2024/01/21 13:36:34;;;;;;;8.10;5.35;;;7.90;7.80;;;;;;5047222;28;20099;-79
2024/01/21 13:39:25;;;;;;;12.75;6.10;;;7.40;11.50;;;;;;5051761;28;20123;-80
2024/01/21 13:42:12;;;;;;;16.15;5.35;;;8.20;22.60;;;;;;5041566;28;20037;-80
2024/01/21 13:45:04;;;;;;;8.88;5.43;;;9.30;28.20;;;;;;5036795;28;20110;-77
2024/01/21 13:47:52;;;;;;;8.23;5.47;;;9.00;17.30;;;;;;5047443;28;20045;-77
2024/01/21 13:50:42;;;;;;;10.70;5.90;;;8.60;15.70;;;;;;5044822;28;20103;-79
2024/01/21 13:53:34;;;;;;;9.98;5.30;;;8.30;12.30;;;;;;5053282;28;20041;-79
2024/01/21 13:56:23;;;;;;;13.68;6.30;;;8.30;11.80;;;;;;5053883;28;20156;-79
2024/01/21 13:59:14;;;;;;;9.43;4.80;;;9.30;13.80;;;;;;5051478;28;20053;-80
2024/01/21 14:02:03;;;;;;;10.65;5.78;;;10.10;15.40;;;;;;5046172;28;20034;-77
2024/01/21 14:05:02;;;;;;;10.27;5.18;;;9.50;14.00;;;;;;5050982;28;20034;-78
2024/01/21 14:07:56;;;;;;;10.15;5.10;;;9.50;12.60;;;;;;5036518;28;20136;-79
2024/01/21 14:10:46;;;;;;;6.80;4.55;;;9.50;8.50;;;;;;5036280;28;20132;-79
2024/01/21 14:13:39;;;;;;;9.70;5.25;;;9.50;8.10;;;;;;5045814;28;20045;-80
2024/01/21 14:16:29;;;;;;;7.70;4.32;;;9.20;14.70;;;;;;5039335;28;20108;-80
2024/01/21 14:19:22;;;;;;;6.30;4.38;;;8.90;13.30;;;;;;5047095;28;20449;-76
2024/01/21 14:22:11;;;;;;;9.10;4.40;;;9.20;14.40;;;;;;5058327;28;20029;-77
2024/01/21 14:25:29;;;;;;;11.35;4.50;;;9.90;14.20;;;;;;5028062;28;20052;-77
2024/01/21 14:28:20;;;;;;;8.75;4.35;;;10.20;11.50;;;;;;5041691;28;20047;-79
2024/01/21 14:31:13;;;;;;;7.80;4.22;;;10.00;5.40;;;;;;5045046;28;20042;-79